createdAt,value
2022-10-16T00:13:29.442Z,97938.23
2022-10-16T00:16:04.030Z,97941.48
2022-10-16T00:19:17.191Z,97943.83
2022-10-16T00:22:17.170Z,97944.63
2022-10-16T00:28:44.431Z,97956.46
2022-10-16T00:31:58.705Z,97958.84
2022-10-16T00:41:30.139Z,97962.41
2022-10-16T00:54:02.449Z,97960.92
2022-10-16T01:00:19.202Z,97968.63
2022-10-16T01:06:41.204Z,97973.09
2022-10-16T01:09:50.911Z,97973.30
2022-10-16T01:16:38.089Z,97972.55
2022-10-16T01:22:56.133Z,97973.70
2022-10-16T01:25:40.173Z,97969.58
2022-10-16T01:28:15.924Z,97970.02
2022-10-16T01:31:18.305Z,97975.77
2022-10-16T01:44:23.075Z,97967.63
2022-10-16T01:50:40.973Z,97962.84
2022-10-16T01:53:54.612Z,97964.30
2022-10-16T02:03:39.343Z,97960.67
2022-10-16T02:23:18.400Z,97961.32
2022-10-16T02:26:18.508Z,97964.49
2022-10-16T02:32:22.642Z,97969.64
2022-10-16T02:35:09.527Z,97969.64
2022-10-16T02:41:39.408Z,97965.27
2022-10-16T02:48:20.326Z,97961.70
2022-10-16T02:51:20.553Z,97968.98
2022-10-16T02:54:06.595Z,97967.97
2022-10-16T02:59:53.570Z,97973.63
2022-10-16T03:05:40.314Z,97974.84
2022-10-16T03:11:40.457Z,97972.23
2022-10-16T03:24:23.858Z,97976.58
2022-10-16T03:36:53.831Z,97981.64
2022-10-16T03:39:53.867Z,97980.15
2022-10-16T03:45:41.124Z,97987.14
2022-10-16T03:48:28.135Z,97991.30
2022-10-16T03:54:55.867Z,97995.11
2022-10-16T04:13:30.490Z,98001.86
2022-10-16T04:18:52.733Z,98008.08
2022-10-16T04:25:07.545Z,98012.45
2022-10-16T04:31:48.494Z,98012.48
2022-10-16T04:37:43.221Z,98018.41
2022-10-16T04:40:29.779Z,98017.27
2022-10-16T04:46:57.522Z,98022.22
2022-10-16T04:54:02.204Z,98023.03
2022-10-16T04:57:15.694Z,98021.11
2022-10-16T05:00:15.359Z,98024.54
2022-10-16T05:16:43.644Z,98025.52
2022-10-16T05:19:57.484Z,98024.63
2022-10-16T05:29:11.299Z,98031.77
2022-10-16T05:35:39.478Z,98023.91
2022-10-16T05:41:39.420Z,98024.64
2022-10-16T05:47:56.462Z,98032.45
2022-10-16T06:04:05.563Z,98040.88
2022-10-16T06:07:05.861Z,98045.88
2022-10-16T06:10:07.607Z,98048.44
2022-10-16T06:13:07.404Z,98045.80
2022-10-16T06:19:34.479Z,98058.60
2022-10-16T06:23:01.716Z,98059.27
2022-10-16T06:25:34.338Z,98060.76
2022-10-16T06:28:35.279Z,98059.09
2022-10-16T06:35:03.984Z,98059.41
2022-10-16T06:38:04.009Z,98059.20
2022-10-16T06:53:39.478Z,98080.89
2022-10-16T06:57:07.431Z,98083.38
2022-10-16T07:03:08.905Z,98088.77
2022-10-16T07:05:55.003Z,98090.10
2022-10-16T07:15:50.170Z,98099.35
2022-10-16T07:22:18.666Z,98104.05
2022-10-16T07:25:18.701Z,98109.20
2022-10-16T07:28:04.795Z,98113.44
2022-10-16T07:30:51.399Z,98112.23
2022-10-16T07:34:18.562Z,98119.22
2022-10-16T07:40:59.677Z,98119.23
2022-10-16T07:44:12.698Z,98123.69
2022-10-16T07:47:26.257Z,98124.27
2022-10-16T07:50:27.156Z,98123.52
2022-10-16T07:56:28.009Z,98130.48
2022-10-16T07:59:41.099Z,98132.42
2022-10-16T08:05:55.660Z,98135.63
2022-10-16T08:09:23.029Z,98132.48
2022-10-16T08:28:48.074Z,98144.36
2022-10-16T08:35:03.106Z,98147.65
2022-10-16T08:38:03.097Z,98155.08
2022-10-16T08:41:29.914Z,98157.84
2022-10-16T08:44:33.741Z,98158.24
2022-10-16T08:48:00.938Z,98164.09
2022-10-16T08:51:28.042Z,98158.56
2022-10-16T08:54:41.055Z,98167.98
2022-10-16T08:57:30.488Z,98164.16
2022-10-16T09:00:43.892Z,98162.58
2022-10-16T09:07:06.989Z,98167.67
2022-10-16T09:13:30.254Z,98176.52
2022-10-16T09:16:35.092Z,98173.70
2022-10-16T09:25:37.613Z,98182.15
2022-10-16T09:28:58.432Z,98183.16
2022-10-16T09:31:48.477Z,98180.73
2022-10-16T09:34:42.185Z,98184.13
2022-10-16T09:37:52.872Z,98189.15
2022-10-16T09:40:44.786Z,98184.89
2022-10-16T09:43:28.827Z,98184.14
2022-10-16T09:46:28.040Z,98187.09
2022-10-16T09:49:02.203Z,98190.70
2022-10-16T09:54:26.830Z,98181.09
2022-10-16T10:01:03.725Z,98184.83
2022-10-16T10:10:01.898Z,98176.59
2022-10-16T10:12:53.327Z,98174.52
2022-10-16T10:15:27.885Z,98172.20
2022-10-16T10:19:01.776Z,98175.11
2022-10-16T10:21:52.519Z,98174.73
2022-10-16T10:24:25.348Z,98173.66
2022-10-16T10:27:20.962Z,98173.25
2022-10-16T10:33:34.128Z,98174.42
2022-10-16T10:36:41.261Z,98173.66
2022-10-16T10:39:53.940Z,98174.27
2022-10-16T10:42:49.147Z,98171.36
2022-10-16T10:45:55.414Z,98174.63
2022-10-16T10:48:57.291Z,98177.01
2022-10-16T10:52:13.326Z,98173.77
2022-10-16T10:55:22.824Z,98169.25
2022-10-16T10:59:01.249Z,98166.00
2022-10-16T11:09:20.086Z,98164.04
2022-10-16T11:11:57.051Z,98159.79
2022-10-16T11:14:49.487Z,98155.64
2022-10-16T11:17:44.608Z,98156.40
2022-10-16T11:20:54.555Z,98157.73
2022-10-16T11:26:57.755Z,98159.52
2022-10-16T11:29:51.475Z,98156.34
2022-10-16T11:33:03.198Z,98156.76
2022-10-16T11:39:11.027Z,98154.69
2022-10-16T11:45:42.759Z,98147.03
2022-10-16T11:48:25.789Z,98147.88
2022-10-16T11:51:23.205Z,98143.66
2022-10-16T11:54:35.048Z,98144.43
2022-10-16T11:57:16.533Z,98144.50
2022-10-16T11:59:54.432Z,98142.36
2022-10-16T12:03:07.950Z,98141.73
2022-10-16T12:06:04.404Z,98135.50
2022-10-16T12:08:37.617Z,98136.46
2022-10-16T12:11:37.330Z,98135.60
2022-10-16T12:14:23.127Z,98132.95
2022-10-16T12:17:37.569Z,98134.19
2022-10-16T12:20:47.181Z,98133.54
2022-10-16T12:23:27.439Z,98134.88
2022-10-16T12:29:43.403Z,98130.65
2022-10-16T12:32:51.906Z,98128.41
2022-10-16T12:35:27.703Z,98124.63
2022-10-16T12:38:43.438Z,98125.49
2022-10-16T12:41:15.785Z,98122.59
2022-10-16T12:54:18.151Z,98124.67
2022-10-16T12:57:12.949Z,98127.98
2022-10-16T13:03:43.919Z,98125.89
2022-10-16T13:07:05.249Z,98125.88
2022-10-16T13:10:18.061Z,98128.45
2022-10-16T13:17:03.624Z,98127.39
2022-10-16T13:19:46.526Z,98125.16
2022-10-16T13:22:25.288Z,98130.13
2022-10-16T13:25:10.178Z,98134.07
2022-10-16T13:27:52.740Z,98133.66
2022-10-16T13:30:30.955Z,98130.38
2022-10-16T13:33:07.515Z,98128.77
2022-10-16T13:35:39.795Z,98129.83
2022-10-16T13:38:18.373Z,98134.85
2022-10-16T13:40:55.829Z,98131.04
2022-10-16T13:43:34.912Z,98134.04
2022-10-16T13:46:08.558Z,98134.62
2022-10-16T13:48:40.545Z,98138.79
2022-10-16T13:51:18.526Z,98138.92
2022-10-16T13:53:50.985Z,98136.08
2022-10-16T13:57:27.239Z,98132.91
2022-10-16T14:03:38.743Z,98128.42
2022-10-16T14:06:18.887Z,98128.04
2022-10-16T14:08:57.928Z,98131.06
2022-10-16T14:11:31.109Z,98131.20
2022-10-16T14:14:04.259Z,98133.83
2022-10-16T14:16:36.981Z,98132.68
2022-10-16T14:19:17.612Z,98133.42
2022-10-16T14:21:50.888Z,98134.52
2022-10-16T14:24:34.433Z,98136.29
2022-10-16T14:27:33.228Z,98137.45
2022-10-16T14:30:20.770Z,98137.41
2022-10-16T14:33:04.813Z,98139.79
2022-10-16T14:35:40.010Z,98138.30
2022-10-16T14:38:22.896Z,98138.19
2022-10-16T14:40:55.734Z,98134.01
2022-10-16T14:43:35.163Z,98136.38
2022-10-16T14:46:15.097Z,98135.29
2022-10-16T14:48:50.249Z,98130.63
2022-10-16T14:51:24.467Z,98130.02
2022-10-16T14:54:00.132Z,98131.89
2022-10-16T14:56:37.044Z,98128.89
2022-10-16T14:59:14.463Z,98125.46
2022-10-16T15:01:49.183Z,98128.75
2022-10-16T15:04:22.238Z,98132.30
2022-10-16T15:06:54.826Z,98132.73
2022-10-16T15:09:27.654Z,98135.54
2022-10-16T15:12:02.058Z,98137.66
2022-10-16T15:14:35.762Z,98139.60
2022-10-16T15:17:10.803Z,98142.05
2022-10-16T15:19:43.587Z,98147.84
2022-10-16T15:22:16.493Z,98144.91
2022-10-16T15:24:49.171Z,98151.17
2022-10-16T15:27:21.842Z,98151.75
2022-10-16T15:29:55.409Z,98150.98
2022-10-16T15:35:10.457Z,98151.14
2022-10-16T15:37:42.832Z,98152.75
2022-10-16T15:40:15.919Z,98157.48
2022-10-16T15:42:49.066Z,98157.95
2022-10-16T15:45:22.592Z,98159.30
2022-10-16T15:47:55.206Z,98157.62
2022-10-16T15:50:27.954Z,98158.31
2022-10-16T15:53:00.435Z,98155.94
2022-10-16T15:55:33.037Z,98159.71
2022-10-16T15:58:05.564Z,98158.08
2022-10-16T16:00:38.948Z,98161.54
2022-10-16T16:03:12.679Z,98160.83
2022-10-16T16:05:46.749Z,98160.55
2022-10-16T16:08:19.548Z,98162.14
2022-10-16T16:11:01.443Z,98161.27
2022-10-16T16:13:34.896Z,98163.85
2022-10-16T16:16:10.298Z,98164.02
2022-10-16T16:18:43.736Z,98162.45
2022-10-16T16:21:16.639Z,98160.56
2022-10-16T16:23:49.134Z,98161.80
2022-10-16T16:26:28.475Z,98162.46
2022-10-16T16:29:01.472Z,98165.06
2022-10-16T16:31:35.962Z,98163.72
2022-10-16T16:34:08.772Z,98166.54
2022-10-16T16:36:41.885Z,98165.23
2022-10-16T16:39:15.385Z,98169.42
2022-10-16T16:41:48.394Z,98171.38
2022-10-16T16:44:21.791Z,98171.85
2022-10-16T16:46:55.970Z,98174.92
2022-10-16T16:49:28.796Z,98176.45
2022-10-16T16:52:02.761Z,98181.38
2022-10-16T16:54:35.704Z,98183.05
2022-10-16T16:57:08.577Z,98191.98
2022-10-16T16:59:41.256Z,98195.90
2022-10-16T17:02:14.383Z,98201.83
2022-10-16T17:04:47.683Z,98206.77
2022-10-16T17:07:24.106Z,98210.48
2022-10-16T17:09:57.915Z,98212.55
2022-10-16T17:12:30.836Z,98214.90
2022-10-16T17:15:07.226Z,98218.63
2022-10-16T17:17:39.856Z,98220.02
2022-10-16T17:20:13.548Z,98224.40
2022-10-16T17:22:46.081Z,98229.92
2022-10-16T17:25:19.648Z,98230.05
2022-10-16T17:27:52.293Z,98233.09
2022-10-16T17:30:26.998Z,98236.79
2022-10-16T17:32:58.197Z,98246.20
2022-10-16T17:35:30.830Z,98245.91
2022-10-16T17:38:03.424Z,98248.98
2022-10-16T17:40:36.447Z,98249.95
2022-10-16T17:43:09.637Z,98255.02
2022-10-16T17:45:42.115Z,98262.36
2022-10-16T17:48:14.726Z,98263.17
2022-10-16T17:50:47.461Z,98265.34
2022-10-16T17:53:19.978Z,98266.70
2022-10-16T17:55:59.390Z,98265.94
2022-10-16T17:58:32.486Z,98266.48
2022-10-16T18:01:13.178Z,98266.23
2022-10-16T18:03:46.017Z,98265.89
2022-10-16T18:06:22.718Z,98270.64
2022-10-16T18:08:58.259Z,98266.53
2022-10-16T18:11:31.416Z,98268.33
2022-10-16T18:14:04.905Z,98272.41
2022-10-16T18:16:39.746Z,98275.79
2022-10-16T18:19:12.840Z,98279.50
2022-10-16T18:21:46.174Z,98282.30
2022-10-16T18:24:18.963Z,98285.25
2022-10-16T18:26:56.517Z,98282.38
2022-10-16T18:29:29.906Z,98286.54
2022-10-16T18:32:02.854Z,98286.02
2022-10-16T18:34:37.809Z,98289.67
2022-10-16T18:37:08.728Z,98290.53
2022-10-16T18:39:42.104Z,98294.40
2022-10-16T18:42:14.626Z,98298.69
2022-10-16T18:44:51.868Z,98298.14
2022-10-16T18:47:26.323Z,98304.11
2022-10-16T18:49:59.228Z,98305.67
2022-10-16T18:52:32.494Z,98307.61
2022-10-16T18:55:06.483Z,98312.13
2022-10-16T18:57:39.518Z,98316.55
2022-10-16T19:00:14.214Z,98318.42
2022-10-16T19:02:46.705Z,98320.56
2022-10-16T19:05:19.468Z,98318.80
2022-10-16T19:07:53.005Z,98322.33
2022-10-16T19:10:26.067Z,98322.65
2022-10-16T19:13:00.227Z,98325.83
2022-10-16T19:15:33.301Z,98327.38
2022-10-16T19:18:06.390Z,98328.39
2022-10-16T19:20:39.242Z,98331.04
2022-10-16T19:23:12.174Z,98335.64
2022-10-16T19:25:44.910Z,98335.38
2022-10-16T19:28:17.760Z,98341.70
2022-10-16T19:30:51.346Z,98342.27
2022-10-16T19:33:24.476Z,98340.63
2022-10-16T19:36:08.186Z,98343.23
2022-10-16T19:38:42.193Z,98347.52
2022-10-16T19:41:17.330Z,98351.62
2022-10-16T19:43:48.813Z,98353.04
2022-10-16T19:46:24.722Z,98350.97
2022-10-16T19:49:00.938Z,98356.73
2022-10-16T19:51:34.520Z,98359.82
2022-10-16T19:54:41.901Z,98360.63
2022-10-16T19:57:18.225Z,98364.86
2022-10-16T20:00:10.604Z,98368.30
2022-10-16T20:06:28.568Z,98385.58
2022-10-16T20:12:46.549Z,98390.05
2022-10-16T20:22:23.051Z,98391.83
2022-10-16T20:25:10.260Z,98396.59
2022-10-16T20:38:26.553Z,98405.57
2022-10-16T20:51:00.247Z,98410.66
2022-10-16T20:57:28.500Z,98417.35
2022-10-16T21:14:46.353Z,98431.23
2022-10-16T21:21:38.080Z,98435.47
2022-10-16T21:24:13.691Z,98437.04
2022-10-16T21:27:16.814Z,98438.67
2022-10-16T21:30:16.457Z,98438.31
2022-10-16T21:33:16.373Z,98444.17
2022-10-16T21:39:44.604Z,98445.41
2022-10-16T21:42:57.915Z,98442.96
2022-10-16T21:46:34.204Z,98444.66
2022-10-16T21:52:38.209Z,98449.64
2022-10-16T21:55:25.261Z,98449.21
2022-10-16T22:04:01.414Z,98449.25
2022-10-16T22:09:48.702Z,98447.43
2022-10-16T22:21:54.951Z,98450.27
2022-10-16T22:51:35.072Z,98468.38
2022-10-16T22:56:54.295Z,98470.42
2022-10-16T23:03:08.805Z,98472.91
2022-10-16T23:09:51.310Z,98475.73
2022-10-16T23:12:37.737Z,98478.02
2022-10-16T23:21:30.880Z,98476.24
2022-10-16T23:24:44.016Z,98476.34
2022-10-16T23:34:29.958Z,98478.00
2022-10-16T23:40:43.364Z,98480.48
2022-10-16T23:43:43.851Z,98479.65
2022-10-16T23:46:31.823Z,98480.95
2022-10-16T23:52:33.556Z,98484.85
2022-10-16T23:59:00.247Z,98488.57
